sensor_id;sensor_type;location;lat;lon;timestamp;P1;durP1;ratioP1;P2;durP2;ratioP2
9960;SDS011;5021;51.506;11.320;2024-02-04T00:01:44;6.80;;;6.10;;
9960;SDS011;5021;51.506;11.320;2024-02-04T00:04:10;7.50;;;6.07;;
9960;SDS011;5021;51.506;11.320;2024-02-04T00:06:36;7.47;;;5.83;;
9960;SDS011;5021;51.506;11.320;2024-02-04T00:09:02;8.13;;;6.17;;
9960;SDS011;5021;51.506;11.320;2024-02-04T00:11:29;6.27;;;5.67;;
9960;SDS011;5021;51.506;11.320;2024-02-04T00:13:55;8.70;;;5.57;;
9960;SDS011;5021;51.506;11.320;2024-02-04T00:16:21;7.70;;;6.43;;
9960;SDS011;5021;51.506;11.320;2024-02-04T00:18:47;9.37;;;6.77;;
9960;SDS011;5021;51.506;11.320;2024-02-04T00:21:13;8.10;;;6.57;;
9960;SDS011;5021;51.506;11.320;2024-02-04T00:23:39;7.83;;;6.83;;
9960;SDS011;5021;51.506;11.320;2024-02-04T00:26:05;7.60;;;6.50;;
9960;SDS011;5021;51.506;11.320;2024-02-04T00:28:31;9.33;;;6.97;;
9960;SDS011;5021;51.506;11.320;2024-02-04T00:30:56;8.10;;;6.63;;
9960;SDS011;5021;51.506;11.320;2024-02-04T00:33:24;8.90;;;6.77;;
9960;SDS011;5021;51.506;11.320;2024-02-04T00:35:50;8.40;;;7.60;;
9960;SDS011;5021;51.506;11.320;2024-02-04T00:38:15;9.93;;;8.07;;
9960;SDS011;5021;51.506;11.320;2024-02-04T00:40:41;10.37;;;8.13;;
9960;SDS011;5021;51.506;11.320;2024-02-04T00:43:07;8.30;;;7.10;;
9960;SDS011;5021;51.506;11.320;2024-02-04T00:45:33;9.03;;;7.33;;
9960;SDS011;5021;51.506;11.320;2024-02-04T00:47:59;10.27;;;7.90;;
9960;SDS011;5021;51.506;11.320;2024-02-04T00:50:25;8.63;;;7.10;;
9960;SDS011;5021;51.506;11.320;2024-02-04T00:52:51;8.27;;;7.47;;
9960;SDS011;5021;51.506;11.320;2024-02-04T00:55:20;8.03;;;7.23;;
9960;SDS011;5021;51.506;11.320;2024-02-04T00:57:46;10.57;;;8.90;;
9960;SDS011;5021;51.506;11.320;2024-02-04T01:00:12;9.17;;;8.10;;
9960;SDS011;5021;51.506;11.320;2024-02-04T01:02:38;10.00;;;8.40;;
9960;SDS011;5021;51.506;11.320;2024-02-04T01:05:04;10.23;;;8.07;;
9960;SDS011;5021;51.506;11.320;2024-02-04T01:07:30;10.27;;;8.73;;
9960;SDS011;5021;51.506;11.320;2024-02-04T01:09:56;11.53;;;8.57;;
9960;SDS011;5021;51.506;11.320;2024-02-04T01:12:22;9.50;;;7.97;;
9960;SDS011;5021;51.506;11.320;2024-02-04T01:14:48;9.93;;;8.87;;
9960;SDS011;5021;51.506;11.320;2024-02-04T01:17:14;9.20;;;8.30;;
9960;SDS011;5021;51.506;11.320;2024-02-04T01:19:40;9.57;;;8.03;;
9960;SDS011;5021;51.506;11.320;2024-02-04T01:22:06;11.70;;;8.63;;
9960;SDS011;5021;51.506;11.320;2024-02-04T01:24:32;10.60;;;8.77;;
9960;SDS011;5021;51.506;11.320;2024-02-04T01:26:57;10.03;;;7.80;;
9960;SDS011;5021;51.506;11.320;2024-02-04T01:29:23;10.93;;;8.43;;
9960;SDS011;5021;51.506;11.320;2024-02-04T01:31:49;10.63;;;8.70;;
9960;SDS011;5021;51.506;11.320;2024-02-04T01:34:16;10.40;;;8.40;;
9960;SDS011;5021;51.506;11.320;2024-02-04T01:36:42;9.43;;;8.07;;
9960;SDS011;5021;51.506;11.320;2024-02-04T01:39:08;10.43;;;8.50;;
9960;SDS011;5021;51.506;11.320;2024-02-04T01:41:35;10.13;;;8.53;;
9960;SDS011;5021;51.506;11.320;2024-02-04T01:44:01;11.13;;;8.07;;
9960;SDS011;5021;51.506;11.320;2024-02-04T01:46:27;10.07;;;8.73;;
9960;SDS011;5021;51.506;11.320;2024-02-04T01:48:53;10.70;;;9.13;;
9960;SDS011;5021;51.506;11.320;2024-02-04T01:51:19;10.23;;;7.93;;
9960;SDS011;5021;51.506;11.320;2024-02-04T01:53:46;9.47;;;7.53;;
9960;SDS011;5021;51.506;11.320;2024-02-04T01:56:13;8.57;;;7.50;;
9960;SDS011;5021;51.506;11.320;2024-02-04T01:58:39;9.37;;;7.60;;
9960;SDS011;5021;51.506;11.320;2024-02-04T02:01:05;8.80;;;7.53;;
9960;SDS011;5021;51.506;11.320;2024-02-04T02:03:31;12.60;;;9.97;;
9960;SDS011;5021;51.506;11.320;2024-02-04T02:05:58;12.17;;;9.40;;
9960;SDS011;5021;51.506;11.320;2024-02-04T02:08:24;12.40;;;9.93;;
9960;SDS011;5021;51.506;11.320;2024-02-04T02:10:51;13.83;;;9.70;;
9960;SDS011;5021;51.506;11.320;2024-02-04T02:13:26;12.30;;;10.30;;
9960;SDS011;5021;51.506;11.320;2024-02-04T02:15:54;12.13;;;10.30;;
9960;SDS011;5021;51.506;11.320;2024-02-04T02:18:23;12.30;;;9.83;;
9960;SDS011;5021;51.506;11.320;2024-02-04T02:20:55;12.30;;;9.67;;
9960;SDS011;5021;51.506;11.320;2024-02-04T02:23:34;12.93;;;10.83;;
9960;SDS011;5021;51.506;11.320;2024-02-04T02:26:00;14.27;;;9.77;;
9960;SDS011;5021;51.506;11.320;2024-02-04T02:28:27;12.70;;;10.03;;
9960;SDS011;5021;51.506;11.320;2024-02-04T02:30:53;14.73;;;11.13;;
9960;SDS011;5021;51.506;11.320;2024-02-04T02:33:19;13.37;;;10.17;;
9960;SDS011;5021;51.506;11.320;2024-02-04T02:35:45;12.87;;;10.07;;
9960;SDS011;5021;51.506;11.320;2024-02-04T02:38:25;11.77;;;9.83;;
9960;SDS011;5021;51.506;11.320;2024-02-04T02:40:54;11.80;;;9.67;;
9960;SDS011;5021;51.506;11.320;2024-02-04T02:43:20;15.10;;;10.50;;
9960;SDS011;5021;51.506;11.320;2024-02-04T02:45:46;14.90;;;11.23;;
9960;SDS011;5021;51.506;11.320;2024-02-04T02:48:13;14.20;;;11.40;;
9960;SDS011;5021;51.506;11.320;2024-02-04T02:50:39;14.00;;;11.00;;
9960;SDS011;5021;51.506;11.320;2024-02-04T02:53:05;14.03;;;10.67;;
9960;SDS011;5021;51.506;11.320;2024-02-04T02:55:31;13.97;;;10.83;;
9960;SDS011;5021;51.506;11.320;2024-02-04T02:57:57;12.43;;;10.43;;
9960;SDS011;5021;51.506;11.320;2024-02-04T03:00:23;14.07;;;11.07;;
9960;SDS011;5021;51.506;11.320;2024-02-04T03:02:49;12.50;;;10.37;;
9960;SDS011;5021;51.506;11.320;2024-02-04T03:05:15;14.07;;;11.27;;
9960;SDS011;5021;51.506;11.320;2024-02-04T03:07:41;15.07;;;10.60;;
9960;SDS011;5021;51.506;11.320;2024-02-04T03:10:07;12.90;;;10.23;;
9960;SDS011;5021;51.506;11.320;2024-02-04T03:12:33;13.23;;;9.77;;
9960;SDS011;5021;51.506;11.320;2024-02-04T03:14:59;13.10;;;9.93;;
9960;SDS011;5021;51.506;11.320;2024-02-04T03:17:26;14.13;;;10.77;;
9960;SDS011;5021;51.506;11.320;2024-02-04T03:19:52;12.03;;;10.03;;
9960;SDS011;5021;51.506;11.320;2024-02-04T03:22:21;14.53;;;10.77;;
9960;SDS011;5021;51.506;11.320;2024-02-04T03:24:50;12.97;;;10.13;;
9960;SDS011;5021;51.506;11.320;2024-02-04T03:27:17;12.23;;;9.90;;
9960;SDS011;5021;51.506;11.320;2024-02-04T03:29:43;11.40;;;8.87;;
9960;SDS011;5021;51.506;11.320;2024-02-04T03:32:12;13.73;;;9.60;;
9960;SDS011;5021;51.506;11.320;2024-02-04T03:34:38;12.90;;;9.60;;
9960;SDS011;5021;51.506;11.320;2024-02-04T03:37:06;10.67;;;8.33;;
9960;SDS011;5021;51.506;11.320;2024-02-04T03:39:32;11.53;;;8.77;;
9960;SDS011;5021;51.506;11.320;2024-02-04T03:41:58;12.40;;;8.60;;
9960;SDS011;5021;51.506;11.320;2024-02-04T03:44:24;11.07;;;9.20;;
9960;SDS011;5021;51.506;11.320;2024-02-04T03:46:50;11.10;;;9.10;;
9960;SDS011;5021;51.506;11.320;2024-02-04T03:49:16;11.40;;;9.40;;
9960;SDS011;5021;51.506;11.320;2024-02-04T03:51:42;10.67;;;8.50;;
9960;SDS011;5021;51.506;11.320;2024-02-04T03:54:08;9.60;;;8.00;;
9960;SDS011;5021;51.506;11.320;2024-02-04T03:56:34;11.37;;;8.50;;
9960;SDS011;5021;51.506;11.320;2024-02-04T03:59:00;10.73;;;8.43;;
9960;SDS011;5021;51.506;11.320;2024-02-04T04:01:26;10.47;;;8.30;;
9960;SDS011;5021;51.506;11.320;2024-02-04T04:03:52;10.77;;;8.43;;
9960;SDS011;5021;51.506;11.320;2024-02-04T04:06:18;11.13;;;8.60;;
9960;SDS011;5021;51.506;11.320;2024-02-04T04:08:44;10.47;;;8.17;;
9960;SDS011;5021;51.506;11.320;2024-02-04T04:11:10;9.17;;;7.80;;
9960;SDS011;5021;51.506;11.320;2024-02-04T04:13:36;9.90;;;8.00;;
9960;SDS011;5021;51.506;11.320;2024-02-04T04:16:03;10.93;;;7.40;;
9960;SDS011;5021;51.506;11.320;2024-02-04T04:18:29;8.67;;;7.20;;
9960;SDS011;5021;51.506;11.320;2024-02-04T04:20:56;9.50;;;6.77;;
9960;SDS011;5021;51.506;11.320;2024-02-04T04:23:22;6.67;;;5.97;;
9960;SDS011;5021;51.506;11.320;2024-02-04T04:25:47;8.03;;;6.20;;
9960;SDS011;5021;51.506;11.320;2024-02-04T04:28:14;10.40;;;7.33;;
9960;SDS011;5021;51.506;11.320;2024-02-04T04:30:39;8.93;;;7.07;;
9960;SDS011;5021;51.506;11.320;2024-02-04T04:33:05;8.80;;;7.40;;
9960;SDS011;5021;51.506;11.320;2024-02-04T04:35:33;9.27;;;7.57;;
9960;SDS011;5021;51.506;11.320;2024-02-04T04:37:59;8.73;;;7.20;;
9960;SDS011;5021;51.506;11.320;2024-02-04T04:40:25;9.80;;;8.40;;
9960;SDS011;5021;51.506;11.320;2024-02-04T04:42:51;8.83;;;7.50;;
9960;SDS011;5021;51.506;11.320;2024-02-04T04:45:17;9.17;;;8.10;;
9960;SDS011;5021;51.506;11.320;2024-02-04T04:47:43;8.63;;;7.13;;
9960;SDS011;5021;51.506;11.320;2024-02-04T04:50:09;8.73;;;7.80;;
9960;SDS011;5021;51.506;11.320;2024-02-04T04:52:35;9.50;;;7.47;;
9960;SDS011;5021;51.506;11.320;2024-02-04T04:55:01;8.47;;;7.30;;
9960;SDS011;5021;51.506;11.320;2024-02-04T04:57:27;8.40;;;6.97;;
9960;SDS011;5021;51.506;11.320;2024-02-04T04:59:53;8.93;;;7.50;;
9960;SDS011;5021;51.506;11.320;2024-02-04T05:02:19;9.33;;;7.53;;
9960;SDS011;5021;51.506;11.320;2024-02-04T05:04:45;7.87;;;6.90;;
9960;SDS011;5021;51.506;11.320;2024-02-04T05:07:12;9.23;;;6.87;;
9960;SDS011;5021;51.506;11.320;2024-02-04T05:09:38;9.93;;;7.33;;
9960;SDS011;5021;51.506;11.320;2024-02-04T05:12:04;8.77;;;7.30;;
9960;SDS011;5021;51.506;11.320;2024-02-04T05:14:30;8.90;;;7.10;;
9960;SDS011;5021;51.506;11.320;2024-02-04T05:16:56;9.63;;;7.97;;
9960;SDS011;5021;51.506;11.320;2024-02-04T05:19:22;9.57;;;7.67;;
9960;SDS011;5021;51.506;11.320;2024-02-04T05:21:48;8.53;;;7.10;;
9960;SDS011;5021;51.506;11.320;2024-02-04T05:24:14;9.47;;;7.53;;
9960;SDS011;5021;51.506;11.320;2024-02-04T05:26:39;8.57;;;7.27;;
9960;SDS011;5021;51.506;11.320;2024-02-04T05:29:05;8.03;;;7.07;;
9960;SDS011;5021;51.506;11.320;2024-02-04T05:31:31;9.80;;;7.47;;
9960;SDS011;5021;51.506;11.320;2024-02-04T05:33:57;8.17;;;6.90;;
9960;SDS011;5021;51.506;11.320;2024-02-04T05:36:23;9.20;;;7.47;;
9960;SDS011;5021;51.506;11.320;2024-02-04T05:38:49;8.83;;;7.30;;
9960;SDS011;5021;51.506;11.320;2024-02-04T05:41:15;9.77;;;7.40;;
9960;SDS011;5021;51.506;11.320;2024-02-04T05:43:41;8.97;;;7.50;;
9960;SDS011;5021;51.506;11.320;2024-02-04T05:46:07;8.73;;;7.00;;
9960;SDS011;5021;51.506;11.320;2024-02-04T05:48:33;8.27;;;7.13;;
9960;SDS011;5021;51.506;11.320;2024-02-04T05:50:59;9.27;;;6.73;;
9960;SDS011;5021;51.506;11.320;2024-02-04T05:53:25;8.93;;;7.33;;
9960;SDS011;5021;51.506;11.320;2024-02-04T05:55:51;11.00;;;7.70;;
9960;SDS011;5021;51.506;11.320;2024-02-04T05:58:17;8.43;;;6.80;;
9960;SDS011;5021;51.506;11.320;2024-02-04T06:00:43;8.00;;;6.50;;
9960;SDS011;5021;51.506;11.320;2024-02-04T06:03:09;9.00;;;7.17;;
9960;SDS011;5021;51.506;11.320;2024-02-04T06:05:35;7.40;;;6.60;;
9960;SDS011;5021;51.506;11.320;2024-02-04T06:08:01;8.97;;;6.50;;
9960;SDS011;5021;51.506;11.320;2024-02-04T06:10:27;8.57;;;6.83;;
9960;SDS011;5021;51.506;11.320;2024-02-04T06:12:53;7.03;;;6.17;;
9960;SDS011;5021;51.506;11.320;2024-02-04T06:15:18;7.57;;;6.20;;
9960;SDS011;5021;51.506;11.320;2024-02-04T06:17:46;9.93;;;7.17;;
9960;SDS011;5021;51.506;11.320;2024-02-04T06:20:12;10.10;;;7.13;;
9960;SDS011;5021;51.506;11.320;2024-02-04T06:22:38;7.40;;;6.50;;
9960;SDS011;5021;51.506;11.320;2024-02-04T06:25:04;6.63;;;5.67;;
9960;SDS011;5021;51.506;11.320;2024-02-04T06:27:30;6.67;;;5.50;;
9960;SDS011;5021;51.506;11.320;2024-02-04T06:29:56;4.47;;;4.07;;
9960;SDS011;5021;51.506;11.320;2024-02-04T06:32:22;5.57;;;4.20;;
9960;SDS011;5021;51.506;11.320;2024-02-04T06:34:49;4.37;;;3.97;;
9960;SDS011;5021;51.506;11.320;2024-02-04T06:37:16;3.70;;;3.40;;
9960;SDS011;5021;51.506;11.320;2024-02-04T06:39:42;3.50;;;3.20;;
9960;SDS011;5021;51.506;11.320;2024-02-04T06:42:08;3.30;;;3.00;;
9960;SDS011;5021;51.506;11.320;2024-02-04T06:44:34;4.30;;;3.30;;
9960;SDS011;5021;51.506;11.320;2024-02-04T06:46:59;3.10;;;2.80;;
9960;SDS011;5021;51.506;11.320;2024-02-04T06:49:25;2.93;;;2.50;;
9960;SDS011;5021;51.506;11.320;2024-02-04T06:51:51;2.90;;;2.60;;
9960;SDS011;5021;51.506;11.320;2024-02-04T06:54:21;3.03;;;2.77;;
9960;SDS011;5021;51.506;11.320;2024-02-04T06:56:47;2.93;;;2.70;;
9960;SDS011;5021;51.506;11.320;2024-02-04T06:59:13;3.10;;;2.80;;
9960;SDS011;5021;51.506;11.320;2024-02-04T07:01:39;2.90;;;2.70;;
9960;SDS011;5021;51.506;11.320;2024-02-04T07:04:05;2.97;;;2.67;;
9960;SDS011;5021;51.506;11.320;2024-02-04T07:06:31;3.27;;;2.57;;
9960;SDS011;5021;51.506;11.320;2024-02-04T07:08:57;3.07;;;2.77;;
9960;SDS011;5021;51.506;11.320;2024-02-04T07:11:23;2.50;;;2.30;;
9960;SDS011;5021;51.506;11.320;2024-02-04T07:13:49;2.60;;;2.40;;
9960;SDS011;5021;51.506;11.320;2024-02-04T07:16:23;3.43;;;2.80;;
9960;SDS011;5021;51.506;11.320;2024-02-04T07:18:49;3.50;;;2.13;;
9960;SDS011;5021;51.506;11.320;2024-02-04T07:21:14;2.30;;;2.10;;
9960;SDS011;5021;51.506;11.320;2024-02-04T07:23:41;2.40;;;2.10;;
9960;SDS011;5021;51.506;11.320;2024-02-04T07:26:07;2.40;;;2.20;;
9960;SDS011;5021;51.506;11.320;2024-02-04T07:28:33;2.30;;;2.10;;
9960;SDS011;5021;51.506;11.320;2024-02-04T07:30:59;2.30;;;2.10;;
9960;SDS011;5021;51.506;11.320;2024-02-04T07:33:25;1.97;;;1.77;;
9960;SDS011;5021;51.506;11.320;2024-02-04T07:35:51;2.00;;;1.80;;
9960;SDS011;5021;51.506;11.320;2024-02-04T07:38:17;2.30;;;2.10;;
9960;SDS011;5021;51.506;11.320;2024-02-04T07:40:43;3.23;;;2.17;;
9960;SDS011;5021;51.506;11.320;2024-02-04T07:43:09;2.47;;;2.00;;
9960;SDS011;5021;51.506;11.320;2024-02-04T07:45:35;2.33;;;2.10;;
9960;SDS011;5021;51.506;11.320;2024-02-04T07:48:01;2.27;;;2.07;;
9960;SDS011;5021;51.506;11.320;2024-02-04T07:50:27;3.57;;;2.30;;
9960;SDS011;5021;51.506;11.320;2024-02-04T07:52:53;2.63;;;1.90;;
9960;SDS011;5021;51.506;11.320;2024-02-04T07:55:19;2.40;;;2.00;;
9960;SDS011;5021;51.506;11.320;2024-02-04T07:57:45;3.00;;;2.23;;
9960;SDS011;5021;51.506;11.320;2024-02-04T08:00:11;3.10;;;2.80;;
9960;SDS011;5021;51.506;11.320;2024-02-04T08:02:37;2.60;;;2.40;;
9960;SDS011;5021;51.506;11.320;2024-02-04T08:05:03;4.17;;;3.00;;
9960;SDS011;5021;51.506;11.320;2024-02-04T08:07:30;3.20;;;2.90;;
9960;SDS011;5021;51.506;11.320;2024-02-04T08:09:56;3.00;;;2.70;;
9960;SDS011;5021;51.506;11.320;2024-02-04T08:12:22;4.40;;;3.03;;
9960;SDS011;5021;51.506;11.320;2024-02-04T08:14:48;3.33;;;3.00;;
9960;SDS011;5021;51.506;11.320;2024-02-04T08:17:14;4.67;;;3.10;;
9960;SDS011;5021;51.506;11.320;2024-02-04T08:19:40;4.83;;;3.43;;
9960;SDS011;5021;51.506;11.320;2024-02-04T08:22:06;3.20;;;2.90;;
9960;SDS011;5021;51.506;11.320;2024-02-04T08:24:32;3.93;;;3.30;;
9960;SDS011;5021;51.506;11.320;2024-02-04T08:26:58;4.17;;;3.47;;
9960;SDS011;5021;51.506;11.320;2024-02-04T08:29:24;3.40;;;3.10;;
9960;SDS011;5021;51.506;11.320;2024-02-04T08:31:52;4.77;;;3.57;;
9960;SDS011;5021;51.506;11.320;2024-02-04T08:34:18;3.60;;;3.30;;
9960;SDS011;5021;51.506;11.320;2024-02-04T08:36:49;4.10;;;3.70;;
9960;SDS011;5021;51.506;11.320;2024-02-04T08:39:15;3.93;;;3.53;;
9960;SDS011;5021;51.506;11.320;2024-02-04T08:41:41;4.63;;;3.77;;
9960;SDS011;5021;51.506;11.320;2024-02-04T08:44:07;4.10;;;3.70;;
9960;SDS011;5021;51.506;11.320;2024-02-04T08:46:33;4.10;;;3.43;;
9960;SDS011;5021;51.506;11.320;2024-02-04T08:48:59;4.73;;;3.60;;
9960;SDS011;5021;51.506;11.320;2024-02-04T08:51:24;4.43;;;3.30;;
9960;SDS011;5021;51.506;11.320;2024-02-04T08:53:50;3.60;;;3.30;;
9960;SDS011;5021;51.506;11.320;2024-02-04T08:56:16;2.80;;;2.60;;
9960;SDS011;5021;51.506;11.320;2024-02-04T08:58:43;3.23;;;2.87;;
9960;SDS011;5021;51.506;11.320;2024-02-04T09:01:09;3.53;;;2.80;;
9960;SDS011;5021;51.506;11.320;2024-02-04T09:03:35;3.03;;;2.73;;
9960;SDS011;5021;51.506;11.320;2024-02-04T09:06:01;2.53;;;2.33;;
9960;SDS011;5021;51.506;11.320;2024-02-04T09:08:27;3.00;;;2.70;;
9960;SDS011;5021;51.506;11.320;2024-02-04T09:10:53;3.30;;;2.30;;
9960;SDS011;5021;51.506;11.320;2024-02-04T09:13:19;3.50;;;2.60;;
9960;SDS011;5021;51.506;11.320;2024-02-04T09:15:45;2.60;;;2.40;;
9960;SDS011;5021;51.506;11.320;2024-02-04T09:18:11;3.10;;;2.70;;
9960;SDS011;5021;51.506;11.320;2024-02-04T09:20:37;3.17;;;2.73;;
9960;SDS011;5021;51.506;11.320;2024-02-04T09:23:03;3.67;;;3.00;;
9960;SDS011;5021;51.506;11.320;2024-02-04T09:25:30;3.43;;;3.13;;
9960;SDS011;5021;51.506;11.320;2024-02-04T09:27:56;3.23;;;2.93;;
9960;SDS011;5021;51.506;11.320;2024-02-04T09:30:22;4.07;;;3.37;;
9960;SDS011;5021;51.506;11.320;2024-02-04T09:32:48;4.27;;;3.20;;
9960;SDS011;5021;51.506;11.320;2024-02-04T09:35:14;4.67;;;3.83;;
9960;SDS011;5021;51.506;11.320;2024-02-04T09:37:41;4.13;;;3.73;;
9960;SDS011;5021;51.506;11.320;2024-02-04T09:40:07;4.37;;;3.80;;
9960;SDS011;5021;51.506;11.320;2024-02-04T09:42:33;5.03;;;3.70;;
9960;SDS011;5021;51.506;11.320;2024-02-04T09:44:59;4.53;;;4.10;;
9960;SDS011;5021;51.506;11.320;2024-02-04T09:47:25;5.17;;;4.07;;
9960;SDS011;5021;51.506;11.320;2024-02-04T09:49:52;4.70;;;4.20;;
9960;SDS011;5021;51.506;11.320;2024-02-04T09:52:21;5.10;;;4.60;;
9960;SDS011;5021;51.506;11.320;2024-02-04T09:54:54;6.07;;;4.80;;
9960;SDS011;5021;51.506;11.320;2024-02-04T09:57:21;6.00;;;5.40;;
9960;SDS011;5021;51.506;11.320;2024-02-04T09:59:47;6.27;;;4.90;;
9960;SDS011;5021;51.506;11.320;2024-02-04T10:02:13;5.73;;;5.13;;
9960;SDS011;5021;51.506;11.320;2024-02-04T10:04:40;5.70;;;5.10;;
9960;SDS011;5021;51.506;11.320;2024-02-04T10:07:06;6.77;;;5.47;;
9960;SDS011;5021;51.506;11.320;2024-02-04T10:09:32;6.37;;;5.70;;
9960;SDS011;5021;51.506;11.320;2024-02-04T10:11:58;7.53;;;6.53;;
9960;SDS011;5021;51.506;11.320;2024-02-04T10:14:24;8.47;;;6.23;;
9960;SDS011;5021;51.506;11.320;2024-02-04T10:16:50;6.90;;;5.67;;
9960;SDS011;5021;51.506;11.320;2024-02-04T10:19:16;6.63;;;6.03;;
9960;SDS011;5021;51.506;11.320;2024-02-04T10:21:42;6.93;;;6.10;;
9960;SDS011;5021;51.506;11.320;2024-02-04T10:24:08;8.63;;;6.07;;
9960;SDS011;5021;51.506;11.320;2024-02-04T10:26:34;7.37;;;6.23;;
9960;SDS011;5021;51.506;11.320;2024-02-04T10:29:02;7.20;;;6.50;;
9960;SDS011;5021;51.506;11.320;2024-02-04T10:31:28;6.53;;;5.80;;
9960;SDS011;5021;51.506;11.320;2024-02-04T10:33:55;6.93;;;6.23;;
9960;SDS011;5021;51.506;11.320;2024-02-04T10:36:21;6.70;;;6.00;;
9960;SDS011;5021;51.506;11.320;2024-02-04T10:38:47;8.67;;;5.53;;
9960;SDS011;5021;51.506;11.320;2024-02-04T10:41:14;5.20;;;4.70;;
9960;SDS011;5021;51.506;11.320;2024-02-04T10:43:40;5.80;;;4.30;;
9960;SDS011;5021;51.506;11.320;2024-02-04T10:46:17;4.90;;;4.43;;
9960;SDS011;5021;51.506;11.320;2024-02-04T10:48:43;5.30;;;4.80;;
9960;SDS011;5021;51.506;11.320;2024-02-04T10:51:11;5.30;;;4.70;;
9960;SDS011;5021;51.506;11.320;2024-02-04T10:53:40;5.17;;;4.67;;
9960;SDS011;5021;51.506;11.320;2024-02-04T10:56:07;4.77;;;4.30;;
9960;SDS011;5021;51.506;11.320;2024-02-04T10:58:36;4.67;;;4.27;;
9960;SDS011;5021;51.506;11.320;2024-02-04T11:01:02;4.93;;;4.43;;
9960;SDS011;5021;51.506;11.320;2024-02-04T11:03:28;4.70;;;4.30;;
9960;SDS011;5021;51.506;11.320;2024-02-04T11:05:55;5.40;;;4.83;;
9960;SDS011;5021;51.506;11.320;2024-02-04T11:08:21;6.20;;;4.73;;
9960;SDS011;5021;51.506;11.320;2024-02-04T11:10:47;4.17;;;3.60;;
9960;SDS011;5021;51.506;11.320;2024-02-04T11:13:13;3.80;;;3.40;;
9960;SDS011;5021;51.506;11.320;2024-02-04T11:15:40;4.60;;;3.70;;
9960;SDS011;5021;51.506;11.320;2024-02-04T11:18:30;4.97;;;3.73;;
9960;SDS011;5021;51.506;11.320;2024-02-04T11:25:56;2.93;;;2.70;;
9960;SDS011;5021;51.506;11.320;2024-02-04T11:28:23;3.13;;;2.50;;
9960;SDS011;5021;51.506;11.320;2024-02-04T11:30:51;2.80;;;2.50;;
9960;SDS011;5021;51.506;11.320;2024-02-04T11:33:17;4.13;;;2.63;;
9960;SDS011;5021;51.506;11.320;2024-02-04T11:35:44;2.93;;;2.47;;
9960;SDS011;5021;51.506;11.320;2024-02-04T11:38:10;2.50;;;2.30;;
9960;SDS011;5021;51.506;11.320;2024-02-04T11:40:39;2.57;;;2.37;;
9960;SDS011;5021;51.506;11.320;2024-02-04T11:43:12;2.70;;;1.93;;
9960;SDS011;5021;51.506;11.320;2024-02-04T11:45:39;2.23;;;1.90;;
9960;SDS011;5021;51.506;11.320;2024-02-04T11:48:06;3.50;;;2.30;;
9960;SDS011;5021;51.506;11.320;2024-02-04T11:50:32;3.20;;;1.87;;
9960;SDS011;5021;51.506;11.320;2024-02-04T11:55:31;2.57;;;1.77;;
9960;SDS011;5021;51.506;11.320;2024-02-04T11:57:57;3.00;;;2.10;;
9960;SDS011;5021;51.506;11.320;2024-02-04T12:00:23;2.00;;;1.80;;
9960;SDS011;5021;51.506;11.320;2024-02-04T12:02:59;2.10;;;1.90;;
9960;SDS011;5021;51.506;11.320;2024-02-04T12:05:26;3.03;;;2.00;;
9960;SDS011;5021;51.506;11.320;2024-02-04T12:07:52;4.43;;;2.20;;
9960;SDS011;5021;51.506;11.320;2024-02-04T12:10:18;2.53;;;1.90;;
9960;SDS011;5021;51.506;11.320;2024-02-04T12:12:45;3.77;;;2.27;;
9960;SDS011;5021;51.506;11.320;2024-02-04T12:15:11;2.50;;;2.00;;
9960;SDS011;5021;51.506;11.320;2024-02-04T12:17:37;3.57;;;2.00;;
9960;SDS011;5021;51.506;11.320;2024-02-04T12:20:03;3.93;;;2.30;;
9960;SDS011;5021;51.506;11.320;2024-02-04T12:22:30;3.00;;;2.07;;
9960;SDS011;5021;51.506;11.320;2024-02-04T12:24:57;2.33;;;2.00;;
9960;SDS011;5021;51.506;11.320;2024-02-04T12:27:23;3.13;;;1.77;;
9960;SDS011;5021;51.506;11.320;2024-02-04T12:29:52;3.67;;;2.30;;
9960;SDS011;5021;51.506;11.320;2024-02-04T12:32:18;3.70;;;2.20;;
9960;SDS011;5021;51.506;11.320;2024-02-04T12:34:47;3.53;;;2.00;;
9960;SDS011;5021;51.506;11.320;2024-02-04T12:37:14;4.43;;;2.17;;
9960;SDS011;5021;51.506;11.320;2024-02-04T12:39:39;2.90;;;1.90;;
9960;SDS011;5021;51.506;11.320;2024-02-04T12:42:05;3.57;;;2.50;;
9960;SDS011;5021;51.506;11.320;2024-02-04T12:44:31;3.03;;;2.40;;
9960;SDS011;5021;51.506;11.320;2024-02-04T12:46:57;2.87;;;2.20;;
9960;SDS011;5021;51.506;11.320;2024-02-04T12:49:23;2.80;;;2.00;;
9960;SDS011;5021;51.506;11.320;2024-02-04T12:51:50;2.67;;;2.00;;
9960;SDS011;5021;51.506;11.320;2024-02-04T12:54:21;2.87;;;2.03;;
9960;SDS011;5021;51.506;11.320;2024-02-04T12:56:47;2.40;;;2.03;;
9960;SDS011;5021;51.506;11.320;2024-02-04T12:59:27;2.80;;;2.13;;
9960;SDS011;5021;51.506;11.320;2024-02-04T13:02:00;2.27;;;1.80;;
9960;SDS011;5021;51.506;11.320;2024-02-04T13:04:35;1.60;;;1.50;;
9960;SDS011;5021;51.506;11.320;2024-02-04T13:07:05;3.00;;;1.80;;
9960;SDS011;5021;51.506;11.320;2024-02-04T13:09:31;2.00;;;1.67;;
9960;SDS011;5021;51.506;11.320;2024-02-04T13:12:04;3.57;;;1.73;;
9960;SDS011;5021;51.506;11.320;2024-02-04T13:14:30;1.70;;;1.60;;
9960;SDS011;5021;51.506;11.320;2024-02-04T13:16:56;3.10;;;1.50;;
9960;SDS011;5021;51.506;11.320;2024-02-04T13:19:22;2.27;;;1.90;;
9960;SDS011;5021;51.506;11.320;2024-02-04T13:21:47;3.33;;;2.10;;
9960;SDS011;5021;51.506;11.320;2024-02-04T13:24:14;4.00;;;1.80;;
9960;SDS011;5021;51.506;11.320;2024-02-04T13:26:40;2.40;;;1.97;;
9960;SDS011;5021;51.506;11.320;2024-02-04T13:29:05;2.07;;;1.60;;
9960;SDS011;5021;51.506;11.320;2024-02-04T13:31:32;2.63;;;1.70;;
9960;SDS011;5021;51.506;11.320;2024-02-04T13:33:58;2.90;;;1.90;;
9960;SDS011;5021;51.506;11.320;2024-02-04T13:36:24;1.80;;;1.60;;
9960;SDS011;5021;51.506;11.320;2024-02-04T13:38:50;3.77;;;2.50;;
9960;SDS011;5021;51.506;11.320;2024-02-04T13:41:16;4.50;;;2.23;;
9960;SDS011;5021;51.506;11.320;2024-02-04T13:43:42;1.90;;;1.70;;
9960;SDS011;5021;51.506;11.320;2024-02-04T13:46:09;2.30;;;2.00;;
9960;SDS011;5021;51.506;11.320;2024-02-04T13:48:34;3.50;;;2.20;;
9960;SDS011;5021;51.506;11.320;2024-02-04T13:51:00;5.27;;;2.90;;
9960;SDS011;5021;51.506;11.320;2024-02-04T13:53:26;2.10;;;1.90;;
9960;SDS011;5021;51.506;11.320;2024-02-04T13:55:52;3.30;;;2.40;;
9960;SDS011;5021;51.506;11.320;2024-02-04T13:58:19;4.93;;;2.13;;
9960;SDS011;5021;51.506;11.320;2024-02-04T14:00:44;2.40;;;2.10;;
9960;SDS011;5021;51.506;11.320;2024-02-04T14:03:10;4.73;;;2.00;;
9960;SDS011;5021;51.506;11.320;2024-02-04T14:05:38;3.00;;;2.10;;
9960;SDS011;5021;51.506;11.320;2024-02-04T14:08:04;4.33;;;2.37;;
9960;SDS011;5021;51.506;11.320;2024-02-04T14:10:31;3.77;;;2.40;;
9960;SDS011;5021;51.506;11.320;2024-02-04T14:12:56;4.10;;;2.50;;
9960;SDS011;5021;51.506;11.320;2024-02-04T14:15:22;4.20;;;2.70;;
9960;SDS011;5021;51.506;11.320;2024-02-04T14:17:48;4.33;;;2.80;;
9960;SDS011;5021;51.506;11.320;2024-02-04T14:20:14;5.23;;;3.17;;
9960;SDS011;5021;51.506;11.320;2024-02-04T14:22:40;5.43;;;3.23;;
9960;SDS011;5021;51.506;11.320;2024-02-04T14:25:06;5.70;;;3.37;;
9960;SDS011;5021;51.506;11.320;2024-02-04T14:27:32;4.23;;;2.70;;
9960;SDS011;5021;51.506;11.320;2024-02-04T14:29:58;3.97;;;3.03;;
9960;SDS011;5021;51.506;11.320;2024-02-04T14:32:24;3.33;;;2.47;;
9960;SDS011;5021;51.506;11.320;2024-02-04T14:34:50;3.50;;;2.80;;
9960;SDS011;5021;51.506;11.320;2024-02-04T14:37:18;3.30;;;2.30;;
9960;SDS011;5021;51.506;11.320;2024-02-04T14:39:45;5.13;;;2.27;;
9960;SDS011;5021;51.506;11.320;2024-02-04T14:42:10;3.73;;;2.33;;
9960;SDS011;5021;51.506;11.320;2024-02-04T14:44:36;3.03;;;2.33;;
9960;SDS011;5021;51.506;11.320;2024-02-04T14:47:02;4.20;;;2.53;;
9960;SDS011;5021;51.506;11.320;2024-02-04T14:49:28;2.50;;;2.30;;
9960;SDS011;5021;51.506;11.320;2024-02-04T14:51:54;3.13;;;2.60;;
9960;SDS011;5021;51.506;11.320;2024-02-04T14:54:20;3.50;;;2.67;;
9960;SDS011;5021;51.506;11.320;2024-02-04T14:56:46;3.50;;;2.83;;
9960;SDS011;5021;51.506;11.320;2024-02-04T14:59:14;3.20;;;2.50;;
9960;SDS011;5021;51.506;11.320;2024-02-04T15:01:44;4.40;;;3.20;;